Terminal Aerodrome Forecast
Issued by NWS

Home | Current Version | Previous Version | Text Only | Print | Product List | Glossary On
Versions: 1 2 3 4 5 6 7 8 9 10 11 12 13 14 15 16
944
FTUS46 KLOX 051142
TAFPMD
TAF
KPMD 051142Z 0512/0612 25012KT P6SM BKN150
     FM051800 23017G25KT P6SM SCT060 BKN100
     FM052100 23023G31KT P6SM VCTS SCT025CB BKN050
     FM060200 24014G22KT P6SM SCT050 SCT080=

USA.gov is the U.S. government's official web portal to all federal, state and local government web resources and services.